sensor_id;sensor_type;location;lat;lon;timestamp;temperature;humidity
29539;DHT22;16482;51.046;4.498;2023-03-02T00:04:28;22.50;22.60
29539;DHT22;16482;51.046;4.498;2023-03-02T00:06:59;22.50;22.50
29539;DHT22;16482;51.046;4.498;2023-03-02T00:09:26;22.40;22.50
29539;DHT22;16482;51.046;4.498;2023-03-02T00:11:52;22.50;22.50
29539;DHT22;16482;51.046;4.498;2023-03-02T00:14:18;22.50;22.60
29539;DHT22;16482;51.046;4.498;2023-03-02T00:16:44;22.40;22.60
29539;DHT22;16482;51.046;4.498;2023-03-02T00:19:10;22.50;22.60
29539;DHT22;16482;51.046;4.498;2023-03-02T00:21:36;22.40;22.60
29539;DHT22;16482;51.046;4.498;2023-03-02T00:24:02;22.40;22.60
29539;DHT22;16482;51.046;4.498;2023-03-02T00:26:28;22.40;22.70
29539;DHT22;16482;51.046;4.498;2023-03-02T00:28:57;22.40;22.60
29539;DHT22;16482;51.046;4.498;2023-03-02T00:31:25;22.40;22.60
29539;DHT22;16482;51.046;4.498;2023-03-02T00:33:53;22.40;22.60
29539;DHT22;16482;51.046;4.498;2023-03-02T00:36:27;22.40;22.70
29539;DHT22;16482;51.046;4.498;2023-03-02T00:38:53;22.40;22.70
29539;DHT22;16482;51.046;4.498;2023-03-02T00:41:22;22.40;22.70
29539;DHT22;16482;51.046;4.498;2023-03-02T00:43:53;22.30;22.60
29539;DHT22;16482;51.046;4.498;2023-03-02T00:46:28;22.40;22.70
29539;DHT22;16482;51.046;4.498;2023-03-02T00:48:54;22.30;22.70
29539;DHT22;16482;51.046;4.498;2023-03-02T00:51:27;22.40;22.70
29539;DHT22;16482;51.046;4.498;2023-03-02T00:53:53;22.30;22.70
29539;DHT22;16482;51.046;4.498;2023-03-02T00:56:22;22.30;22.70
29539;DHT22;16482;51.046;4.498;2023-03-02T00:58:57;22.30;22.70
29539;DHT22;16482;51.046;4.498;2023-03-02T01:01:23;22.30;22.70
29539;DHT22;16482;51.046;4.498;2023-03-02T01:03:52;22.30;22.80
29539;DHT22;16482;51.046;4.498;2023-03-02T01:06:23;22.30;22.70
29539;DHT22;16482;51.046;4.498;2023-03-02T01:08:57;22.30;22.70
29539;DHT22;16482;51.046;4.498;2023-03-02T01:11:22;22.30;22.80
29539;DHT22;16482;51.046;4.498;2023-03-02T01:13:56;22.30;22.80
29539;DHT22;16482;51.046;4.498;2023-03-02T01:16:22;22.20;22.70
29539;DHT22;16482;51.046;4.498;2023-03-02T01:18:55;22.20;22.80
29539;DHT22;16482;51.046;4.498;2023-03-02T01:21:24;22.20;22.80
29539;DHT22;16482;51.046;4.498;2023-03-02T01:23:52;22.20;22.80
29539;DHT22;16482;51.046;4.498;2023-03-02T01:26:26;22.20;22.80
29539;DHT22;16482;51.046;4.498;2023-03-02T01:28:54;22.20;22.80
29539;DHT22;16482;51.046;4.498;2023-03-02T01:31:28;22.20;22.80
29539;DHT22;16482;51.046;4.498;2023-03-02T01:33:54;22.20;22.80
29539;DHT22;16482;51.046;4.498;2023-03-02T01:36:23;22.20;22.80
29539;DHT22;16482;51.046;4.498;2023-03-02T01:38:57;22.20;22.80
29539;DHT22;16482;51.046;4.498;2023-03-02T01:41:26;22.20;22.80
29539;DHT22;16482;51.046;4.498;2023-03-02T01:43:54;22.20;22.80
29539;DHT22;16482;51.046;4.498;2023-03-02T01:46:27;22.20;22.80
29539;DHT22;16482;51.046;4.498;2023-03-02T01:48:58;22.20;22.80
29539;DHT22;16482;51.046;4.498;2023-03-02T01:51:27;22.10;22.70
29539;DHT22;16482;51.046;4.498;2023-03-02T01:53:59;22.20;22.80
29539;DHT22;16482;51.046;4.498;2023-03-02T01:56:30;22.10;22.80
29539;DHT22;16482;51.046;4.498;2023-03-02T01:59:04;22.10;22.80
29539;DHT22;16482;51.046;4.498;2023-03-02T02:01:34;22.10;22.80
29539;DHT22;16482;51.046;4.498;2023-03-02T02:04:04;22.10;22.80
29539;DHT22;16482;51.046;4.498;2023-03-02T02:06:36;22.10;22.90
29539;DHT22;16482;51.046;4.498;2023-03-02T02:09:03;22.10;22.80
29539;DHT22;16482;51.046;4.498;2023-03-02T02:11:30;22.10;22.80
29539;DHT22;16482;51.046;4.498;2023-03-02T02:13:58;22.10;22.90
29539;DHT22;16482;51.046;4.498;2023-03-02T02:16:25;22.10;22.80
29539;DHT22;16482;51.046;4.498;2023-03-02T02:18:54;22.10;22.80
29539;DHT22;16482;51.046;4.498;2023-03-02T02:21:25;22.10;22.90
29539;DHT22;16482;51.046;4.498;2023-03-02T02:24:22;22.00;22.90
29539;DHT22;16482;51.046;4.498;2023-03-02T02:26:51;22.00;22.90
29539;DHT22;16482;51.046;4.498;2023-03-02T02:29:33;22.00;22.80
29539;DHT22;16482;51.046;4.498;2023-03-02T02:32:19;22.00;22.90
29539;DHT22;16482;51.046;4.498;2023-03-02T02:35:25;22.00;22.90
29539;DHT22;16482;51.046;4.498;2023-03-02T02:38:05;22.00;22.90
29539;DHT22;16482;51.046;4.498;2023-03-02T02:40:49;22.00;22.90
29539;DHT22;16482;51.046;4.498;2023-03-02T02:43:19;22.00;22.90
29539;DHT22;16482;51.046;4.498;2023-03-02T02:45:48;22.00;22.90
29539;DHT22;16482;51.046;4.498;2023-03-02T02:48:16;21.90;22.90
29539;DHT22;16482;51.046;4.498;2023-03-02T02:50:43;22.00;22.90
29539;DHT22;16482;51.046;4.498;2023-03-02T02:53:13;22.00;22.90
29539;DHT22;16482;51.046;4.498;2023-03-02T02:55:41;22.00;22.90
29539;DHT22;16482;51.046;4.498;2023-03-02T02:58:32;22.00;22.90
29539;DHT22;16482;51.046;4.498;2023-03-02T03:00:59;22.00;23.00
29539;DHT22;16482;51.046;4.498;2023-03-02T03:03:37;22.00;23.00
29539;DHT22;16482;51.046;4.498;2023-03-02T03:06:07;21.90;22.90
29539;DHT22;16482;51.046;4.498;2023-03-02T03:11:10;21.90;22.90
29539;DHT22;16482;51.046;4.498;2023-03-02T03:13:37;21.90;22.80
29539;DHT22;16482;51.046;4.498;2023-03-02T03:16:05;21.90;22.90
29539;DHT22;16482;51.046;4.498;2023-03-02T03:18:34;21.90;22.90
29539;DHT22;16482;51.046;4.498;2023-03-02T03:21:00;21.90;22.90
29539;DHT22;16482;51.046;4.498;2023-03-02T03:23:26;21.90;22.90
29539;DHT22;16482;51.046;4.498;2023-03-02T03:25:52;21.90;22.90
29539;DHT22;16482;51.046;4.498;2023-03-02T03:28:18;21.90;22.90
29539;DHT22;16482;51.046;4.498;2023-03-02T03:30:44;21.90;22.90
29539;DHT22;16482;51.046;4.498;2023-03-02T03:33:10;21.90;22.90
29539;DHT22;16482;51.046;4.498;2023-03-02T03:35:37;21.90;22.90
29539;DHT22;16482;51.046;4.498;2023-03-02T03:38:07;21.90;22.90
29539;DHT22;16482;51.046;4.498;2023-03-02T03:40:33;21.90;22.90
29539;DHT22;16482;51.046;4.498;2023-03-02T03:43:02;21.90;22.90
29539;DHT22;16482;51.046;4.498;2023-03-02T03:45:36;21.90;22.90
29539;DHT22;16482;51.046;4.498;2023-03-02T03:48:04;21.90;22.90
29539;DHT22;16482;51.046;4.498;2023-03-02T03:50:33;21.90;22.90
29539;DHT22;16482;51.046;4.498;2023-03-02T03:53:03;21.90;22.90
29539;DHT22;16482;51.046;4.498;2023-03-02T03:55:34;21.80;22.90
29539;DHT22;16482;51.046;4.498;2023-03-02T03:58:03;21.90;22.90
29539;DHT22;16482;51.046;4.498;2023-03-02T04:00:32;21.80;22.90
29539;DHT22;16482;51.046;4.498;2023-03-02T04:03:04;21.80;22.90
29539;DHT22;16482;51.046;4.498;2023-03-02T04:05:32;21.80;22.90
29539;DHT22;16482;51.046;4.498;2023-03-02T04:08:06;21.80;22.90
29539;DHT22;16482;51.046;4.498;2023-03-02T04:10:35;21.80;22.90
29539;DHT22;16482;51.046;4.498;2023-03-02T04:13:04;21.80;23.00
29539;DHT22;16482;51.046;4.498;2023-03-02T04:15:33;21.80;22.90
29539;DHT22;16482;51.046;4.498;2023-03-02T04:18:01;21.80;22.90
29539;DHT22;16482;51.046;4.498;2023-03-02T04:20:35;21.80;22.90
29539;DHT22;16482;51.046;4.498;2023-03-02T04:23:11;21.80;22.90
29539;DHT22;16482;51.046;4.498;2023-03-02T04:25:37;21.80;22.90
29539;DHT22;16482;51.046;4.498;2023-03-02T04:28:03;21.80;22.90
29539;DHT22;16482;51.046;4.498;2023-03-02T04:30:38;21.70;22.90
29539;DHT22;16482;51.046;4.498;2023-03-02T04:33:04;21.80;22.90
29539;DHT22;16482;51.046;4.498;2023-03-02T04:35:38;21.70;22.90
29539;DHT22;16482;51.046;4.498;2023-03-02T04:38:03;21.70;22.90
29539;DHT22;16482;51.046;4.498;2023-03-02T04:40:32;21.70;22.90
29539;DHT22;16482;51.046;4.498;2023-03-02T04:43:04;21.70;23.00
29539;DHT22;16482;51.046;4.498;2023-03-02T04:45:33;21.70;23.00
29539;DHT22;16482;51.046;4.498;2023-03-02T04:48:05;21.70;23.00
29539;DHT22;16482;51.046;4.498;2023-03-02T04:50:34;21.70;22.90
29539;DHT22;16482;51.046;4.498;2023-03-02T04:53:09;21.70;23.00
29539;DHT22;16482;51.046;4.498;2023-03-02T04:55:37;21.70;23.00
29539;DHT22;16482;51.046;4.498;2023-03-02T04:58:03;21.70;22.90
29539;DHT22;16482;51.046;4.498;2023-03-02T05:00:35;21.70;23.00
29539;DHT22;16482;51.046;4.498;2023-03-02T05:03:10;21.70;23.00
29539;DHT22;16482;51.046;4.498;2023-03-02T05:05:36;21.70;23.00
29539;DHT22;16482;51.046;4.498;2023-03-02T05:08:04;21.70;23.00
29539;DHT22;16482;51.046;4.498;2023-03-02T05:10:33;21.60;22.90
29539;DHT22;16482;51.046;4.498;2023-03-02T05:13:05;21.60;23.00
29539;DHT22;16482;51.046;4.498;2023-03-02T05:15:37;21.60;23.00
29539;DHT22;16482;51.046;4.498;2023-03-02T05:18:07;21.60;23.00
29539;DHT22;16482;51.046;4.498;2023-03-02T05:20:34;21.60;22.90
29539;DHT22;16482;51.046;4.498;2023-03-02T05:23:07;21.60;22.90
29539;DHT22;16482;51.046;4.498;2023-03-02T05:25:37;21.60;22.90
29539;DHT22;16482;51.046;4.498;2023-03-02T05:28:04;21.60;23.00
29539;DHT22;16482;51.046;4.498;2023-03-02T05:30:33;21.60;23.00
29539;DHT22;16482;51.046;4.498;2023-03-02T05:33:04;21.60;23.00
29539;DHT22;16482;51.046;4.498;2023-03-02T05:35:32;21.60;23.00
29539;DHT22;16482;51.046;4.498;2023-03-02T05:38:01;21.60;23.00
29539;DHT22;16482;51.046;4.498;2023-03-02T05:40:35;21.60;23.00
29539;DHT22;16482;51.046;4.498;2023-03-02T05:43:04;21.60;23.00
29539;DHT22;16482;51.046;4.498;2023-03-02T05:45:39;21.60;22.80
29539;DHT22;16482;51.046;4.498;2023-03-02T05:48:06;21.60;23.20
29539;DHT22;16482;51.046;4.498;2023-03-02T05:50:34;21.60;23.20
29539;DHT22;16482;51.046;4.498;2023-03-02T05:53:05;21.60;23.30
29539;DHT22;16482;51.046;4.498;2023-03-02T05:55:34;21.60;23.40
29539;DHT22;16482;51.046;4.498;2023-03-02T05:58:06;21.60;23.50
29539;DHT22;16482;51.046;4.498;2023-03-02T06:00:33;21.70;23.60
29539;DHT22;16482;51.046;4.498;2023-03-02T06:03:08;21.70;23.60
29539;DHT22;16482;51.046;4.498;2023-03-02T06:05:34;21.80;23.60
29539;DHT22;16482;51.046;4.498;2023-03-02T06:08:03;21.80;23.60
29539;DHT22;16482;51.046;4.498;2023-03-02T06:10:38;21.80;23.60
29539;DHT22;16482;51.046;4.498;2023-03-02T06:13:04;21.90;23.70
29539;DHT22;16482;51.046;4.498;2023-03-02T06:15:39;21.90;23.60
29539;DHT22;16482;51.046;4.498;2023-03-02T06:18:05;22.00;23.60
29539;DHT22;16482;51.046;4.498;2023-03-02T06:20:34;22.00;23.50
29539;DHT22;16482;51.046;4.498;2023-03-02T06:23:03;22.10;23.50
29539;DHT22;16482;51.046;4.498;2023-03-02T06:25:38;22.10;23.40
29539;DHT22;16482;51.046;4.498;2023-03-02T06:28:11;22.10;23.40
29539;DHT22;16482;51.046;4.498;2023-03-02T06:30:37;22.20;23.40
29539;DHT22;16482;51.046;4.498;2023-03-02T06:33:06;22.30;23.50
29539;DHT22;16482;51.046;4.498;2023-03-02T06:35:34;22.30;23.40
29539;DHT22;16482;51.046;4.498;2023-03-02T06:38:03;22.30;23.40
29539;DHT22;16482;51.046;4.498;2023-03-02T06:40:38;22.30;23.40
29539;DHT22;16482;51.046;4.498;2023-03-02T06:43:04;22.40;23.40
29539;DHT22;16482;51.046;4.498;2023-03-02T06:45:37;22.40;23.40
29539;DHT22;16482;51.046;4.498;2023-03-02T06:48:06;22.40;23.40
29539;DHT22;16482;51.046;4.498;2023-03-02T06:50:40;22.40;23.40
29539;DHT22;16482;51.046;4.498;2023-03-02T06:53:06;22.50;23.50
29539;DHT22;16482;51.046;4.498;2023-03-02T06:55:39;22.50;23.50
29539;DHT22;16482;51.046;4.498;2023-03-02T06:58:05;22.50;23.50
29539;DHT22;16482;51.046;4.498;2023-03-02T07:00:34;22.50;23.50
29539;DHT22;16482;51.046;4.498;2023-03-02T07:03:03;22.60;23.50
29539;DHT22;16482;51.046;4.498;2023-03-02T07:05:36;22.60;23.50
29539;DHT22;16482;51.046;4.498;2023-03-02T07:08:05;22.60;23.50
29539;DHT22;16482;51.046;4.498;2023-03-02T07:10:33;22.60;23.50
29539;DHT22;16482;51.046;4.498;2023-03-02T07:13:04;22.60;23.50
29539;DHT22;16482;51.046;4.498;2023-03-02T07:15:38;22.60;23.50
29539;DHT22;16482;51.046;4.498;2023-03-02T07:18:07;22.70;23.60
29539;DHT22;16482;51.046;4.498;2023-03-02T07:20:33;22.70;23.60
29539;DHT22;16482;51.046;4.498;2023-03-02T07:23:03;22.70;23.60
29539;DHT22;16482;51.046;4.498;2023-03-02T07:25:36;22.70;23.60
29539;DHT22;16482;51.046;4.498;2023-03-02T07:28:05;22.70;23.60
29539;DHT22;16482;51.046;4.498;2023-03-02T07:30:33;22.70;23.60
29539;DHT22;16482;51.046;4.498;2023-03-02T07:33:06;22.80;23.70
29539;DHT22;16482;51.046;4.498;2023-03-02T07:35:32;22.80;23.70
29539;DHT22;16482;51.046;4.498;2023-03-02T07:38:06;22.80;23.60
29539;DHT22;16482;51.046;4.498;2023-03-02T07:40:34;22.80;23.70
29539;DHT22;16482;51.046;4.498;2023-03-02T07:43:04;22.80;23.70
29539;DHT22;16482;51.046;4.498;2023-03-02T07:45:39;22.80;23.60
29539;DHT22;16482;51.046;4.498;2023-03-02T07:48:05;22.90;23.70
29539;DHT22;16482;51.046;4.498;2023-03-02T07:50:34;22.90;23.70
29539;DHT22;16482;51.046;4.498;2023-03-02T07:53:09;22.90;23.60
29539;DHT22;16482;51.046;4.498;2023-03-02T07:55:39;23.00;23.50
29539;DHT22;16482;51.046;4.498;2023-03-02T07:58:05;23.10;23.40
29539;DHT22;16482;51.046;4.498;2023-03-02T08:00:41;23.10;23.40
29539;DHT22;16482;51.046;4.498;2023-03-02T08:03:06;23.20;23.40
29539;DHT22;16482;51.046;4.498;2023-03-02T08:05:35;23.20;23.40
29539;DHT22;16482;51.046;4.498;2023-03-02T08:08:04;23.20;23.30
29539;DHT22;16482;51.046;4.498;2023-03-02T08:10:33;23.20;23.80
29539;DHT22;16482;51.046;4.498;2023-03-02T08:13:17;23.30;23.30
29539;DHT22;16482;51.046;4.498;2023-03-02T08:15:43;23.30;23.40
29539;DHT22;16482;51.046;4.498;2023-03-02T08:18:09;23.30;23.30
29539;DHT22;16482;51.046;4.498;2023-03-02T08:20:36;23.30;23.30
29539;DHT22;16482;51.046;4.498;2023-03-02T08:23:06;23.30;23.30
29539;DHT22;16482;51.046;4.498;2023-03-02T08:25:34;23.30;23.40
29539;DHT22;16482;51.046;4.498;2023-03-02T08:28:09;23.30;23.40
29539;DHT22;16482;51.046;4.498;2023-03-02T08:30:35;23.30;23.40
29539;DHT22;16482;51.046;4.498;2023-03-02T08:33:04;23.30;23.40
29539;DHT22;16482;51.046;4.498;2023-03-02T08:35:35;23.30;23.50
29539;DHT22;16482;51.046;4.498;2023-03-02T08:38:08;23.30;23.50
29539;DHT22;16482;51.046;4.498;2023-03-02T08:40:34;23.20;23.60
29539;DHT22;16482;51.046;4.498;2023-03-02T08:43:09;23.20;23.50
29539;DHT22;16482;51.046;4.498;2023-03-02T08:45:35;23.20;23.60
29539;DHT22;16482;51.046;4.498;2023-03-02T08:48:04;23.20;23.60
29539;DHT22;16482;51.046;4.498;2023-03-02T08:50:37;23.20;23.60
29539;DHT22;16482;51.046;4.498;2023-03-02T08:53:03;23.20;24.10
29539;DHT22;16482;51.046;4.498;2023-03-02T08:55:38;23.10;23.60
29539;DHT22;16482;51.046;4.498;2023-03-02T08:58:04;23.10;23.70
29539;DHT22;16482;51.046;4.498;2023-03-02T09:00:38;23.10;23.60
29539;DHT22;16482;51.046;4.498;2023-03-02T09:03:04;23.00;23.70
29539;DHT22;16482;51.046;4.498;2023-03-02T09:05:32;23.00;23.60
29539;DHT22;16482;51.046;4.498;2023-03-02T09:08:06;23.00;23.60
29539;DHT22;16482;51.046;4.498;2023-03-02T09:10:35;23.00;23.70
29539;DHT22;16482;51.046;4.498;2023-03-02T09:13:04;23.00;23.60
29539;DHT22;16482;51.046;4.498;2023-03-02T09:15:37;23.00;23.70
29539;DHT22;16482;51.046;4.498;2023-03-02T09:18:05;23.00;23.80
29539;DHT22;16482;51.046;4.498;2023-03-02T09:20:36;22.90;23.70
29539;DHT22;16482;51.046;4.498;2023-03-02T09:23:05;22.90;23.70
29539;DHT22;16482;51.046;4.498;2023-03-02T09:25:34;22.90;23.70
29539;DHT22;16482;51.046;4.498;2023-03-02T09:28:07;22.90;23.60
29539;DHT22;16482;51.046;4.498;2023-03-02T09:30:36;22.90;23.50
29539;DHT22;16482;51.046;4.498;2023-03-02T09:33:04;22.90;24.60
29539;DHT22;16482;51.046;4.498;2023-03-02T09:35:39;22.90;23.90
29539;DHT22;16482;51.046;4.498;2023-03-02T09:38:05;22.90;23.90
29539;DHT22;16482;51.046;4.498;2023-03-02T09:40:35;22.90;24.10
29539;DHT22;16482;51.046;4.498;2023-03-02T09:43:07;22.90;24.10
29539;DHT22;16482;51.046;4.498;2023-03-02T09:51:30;22.90;24.30
29539;DHT22;16482;51.046;4.498;2023-03-02T09:54:10;22.90;24.40
29539;DHT22;16482;51.046;4.498;2023-03-02T09:56:48;22.90;24.50
29539;DHT22;16482;51.046;4.498;2023-03-02T09:59:37;22.80;24.40
29539;DHT22;16482;51.046;4.498;2023-03-02T10:02:35;22.80;24.50
29539;DHT22;16482;51.046;4.498;2023-03-02T10:05:06;22.80;24.50
29539;DHT22;16482;51.046;4.498;2023-03-02T10:07:38;22.80;24.60
29539;DHT22;16482;51.046;4.498;2023-03-02T10:10:23;22.70;24.80
29539;DHT22;16482;51.046;4.498;2023-03-02T10:13:20;22.80;24.80
29539;DHT22;16482;51.046;4.498;2023-03-02T10:21:19;22.70;24.90
29539;DHT22;16482;51.046;4.498;2023-03-02T10:26:42;22.70;24.90
29539;DHT22;16482;51.046;4.498;2023-03-02T10:29:39;22.70;24.90
29539;DHT22;16482;51.046;4.498;2023-03-02T10:32:28;22.70;24.90
29539;DHT22;16482;51.046;4.498;2023-03-02T10:34:58;22.70;24.90
29539;DHT22;16482;51.046;4.498;2023-03-02T10:37:30;22.70;24.90
29539;DHT22;16482;51.046;4.498;2023-03-02T10:39:56;22.70;24.90
29539;DHT22;16482;51.046;4.498;2023-03-02T10:42:35;22.70;24.90
29539;DHT22;16482;51.046;4.498;2023-03-02T10:45:27;22.70;24.80
29539;DHT22;16482;51.046;4.498;2023-03-02T10:48:10;22.70;24.90
29539;DHT22;16482;51.046;4.498;2023-03-02T10:50:37;22.70;24.80
29539;DHT22;16482;51.046;4.498;2023-03-02T10:53:17;22.70;24.80
29539;DHT22;16482;51.046;4.498;2023-03-02T10:55:46;22.70;24.70
29539;DHT22;16482;51.046;4.498;2023-03-02T10:58:31;22.70;24.80
29539;DHT22;16482;51.046;4.498;2023-03-02T11:01:03;22.70;24.80
29539;DHT22;16482;51.046;4.498;2023-03-02T11:03:31;22.70;24.80
29539;DHT22;16482;51.046;4.498;2023-03-02T11:06:09;22.70;24.80
29539;DHT22;16482;51.046;4.498;2023-03-02T11:08:35;22.60;24.70
29539;DHT22;16482;51.046;4.498;2023-03-02T11:11:03;22.60;24.70
29539;DHT22;16482;51.046;4.498;2023-03-02T11:13:34;22.60;24.60
29539;DHT22;16482;51.046;4.498;2023-03-02T11:16:03;22.50;24.60
29539;DHT22;16482;51.046;4.498;2023-03-02T11:18:37;22.50;24.40
29539;DHT22;16482;51.046;4.498;2023-03-02T11:21:09;22.50;24.40
29539;DHT22;16482;51.046;4.498;2023-03-02T11:24:08;22.50;24.40
29539;DHT22;16482;51.046;4.498;2023-03-02T11:26:58;22.50;24.40
29539;DHT22;16482;51.046;4.498;2023-03-02T11:32:17;22.50;24.40
29539;DHT22;16482;51.046;4.498;2023-03-02T11:34:57;22.50;24.40
29539;DHT22;16482;51.046;4.498;2023-03-02T11:40:23;22.40;24.30
29539;DHT22;16482;51.046;4.498;2023-03-02T11:42:52;22.40;24.30
29539;DHT22;16482;51.046;4.498;2023-03-02T11:45:26;22.40;24.30
29539;DHT22;16482;51.046;4.498;2023-03-02T11:47:57;22.40;24.70
29539;DHT22;16482;51.046;4.498;2023-03-02T11:50:50;22.40;24.20
29539;DHT22;16482;51.046;4.498;2023-03-02T11:53:18;22.40;24.20
29539;DHT22;16482;51.046;4.498;2023-03-02T11:55:48;22.30;24.20
29539;DHT22;16482;51.046;4.498;2023-03-02T11:58:20;22.40;24.20
29539;DHT22;16482;51.046;4.498;2023-03-02T12:00:48;22.40;24.20
29539;DHT22;16482;51.046;4.498;2023-03-02T12:05:58;22.30;24.10
29539;DHT22;16482;51.046;4.498;2023-03-02T12:08:32;22.30;24.10
29539;DHT22;16482;51.046;4.498;2023-03-02T12:16:42;22.30;24.20
29539;DHT22;16482;51.046;4.498;2023-03-02T12:22:05;22.30;24.10
29539;DHT22;16482;51.046;4.498;2023-03-02T12:24:36;22.30;24.10
29539;DHT22;16482;51.046;4.498;2023-03-02T12:29:50;22.30;24.10
29539;DHT22;16482;51.046;4.498;2023-03-02T12:32:28;22.20;24.10
29539;DHT22;16482;51.046;4.498;2023-03-02T12:35:02;22.30;24.10
29539;DHT22;16482;51.046;4.498;2023-03-02T12:37:47;22.20;24.10
29539;DHT22;16482;51.046;4.498;2023-03-02T12:40:24;22.20;24.20
29539;DHT22;16482;51.046;4.498;2023-03-02T12:51:57;22.30;24.70
29539;DHT22;16482;51.046;4.498;2023-03-02T12:54:29;22.20;24.60
29539;DHT22;16482;51.046;4.498;2023-03-02T12:57:04;22.20;24.70
29539;DHT22;16482;51.046;4.498;2023-03-02T12:59:31;22.20;24.60
29539;DHT22;16482;51.046;4.498;2023-03-02T13:05:04;22.20;24.80
29539;DHT22;16482;51.046;4.498;2023-03-02T13:08:23;22.20;24.90
29539;DHT22;16482;51.046;4.498;2023-03-02T13:13:21;22.20;24.90
29539;DHT22;16482;51.046;4.498;2023-03-02T13:15:55;22.20;25.00
29539;DHT22;16482;51.046;4.498;2023-03-02T13:18:24;22.20;24.90
29539;DHT22;16482;51.046;4.498;2023-03-02T13:20:51;22.20;25.00
29539;DHT22;16482;51.046;4.498;2023-03-02T13:23:18;22.20;25.10
29539;DHT22;16482;51.046;4.498;2023-03-02T13:25:53;22.20;25.20
29539;DHT22;16482;51.046;4.498;2023-03-02T13:28:38;22.20;24.90
29539;DHT22;16482;51.046;4.498;2023-03-02T13:31:34;22.20;25.00
29539;DHT22;16482;51.046;4.498;2023-03-02T13:34:00;22.20;24.90
29539;DHT22;16482;51.046;4.498;2023-03-02T13:36:36;22.20;25.30
29539;DHT22;16482;51.046;4.498;2023-03-02T13:39:05;22.20;25.20
29539;DHT22;16482;51.046;4.498;2023-03-02T13:41:34;22.20;25.10
29539;DHT22;16482;51.046;4.498;2023-03-02T13:44:17;22.20;25.10
29539;DHT22;16482;51.046;4.498;2023-03-02T13:46:44;22.20;25.20
29539;DHT22;16482;51.046;4.498;2023-03-02T13:49:11;22.20;25.30
29539;DHT22;16482;51.046;4.498;2023-03-02T13:51:42;22.20;25.20
29539;DHT22;16482;51.046;4.498;2023-03-02T13:54:27;22.20;25.30
29539;DHT22;16482;51.046;4.498;2023-03-02T13:56:56;22.20;25.30
29539;DHT22;16482;51.046;4.498;2023-03-02T13:59:23;22.20;25.30
29539;DHT22;16482;51.046;4.498;2023-03-02T14:01:49;22.20;25.40
29539;DHT22;16482;51.046;4.498;2023-03-02T14:04:17;22.20;25.80
29539;DHT22;16482;51.046;4.498;2023-03-02T14:06:46;22.20;25.30
29539;DHT22;16482;51.046;4.498;2023-03-02T14:09:12;22.20;25.30
29539;DHT22;16482;51.046;4.498;2023-03-02T14:11:42;22.20;25.20
29539;DHT22;16482;51.046;4.498;2023-03-02T14:14:17;22.20;25.40
29539;DHT22;16482;51.046;4.498;2023-03-02T14:16:44;22.10;25.20
29539;DHT22;16482;51.046;4.498;2023-03-02T14:19:12;22.20;25.30
29539;DHT22;16482;51.046;4.498;2023-03-02T14:21:38;22.20;25.30
29539;DHT22;16482;51.046;4.498;2023-03-02T14:24:05;22.20;25.20
29539;DHT22;16482;51.046;4.498;2023-03-02T14:26:47;22.10;25.20
29539;DHT22;16482;51.046;4.498;2023-03-02T14:29:22;22.20;25.20
29539;DHT22;16482;51.046;4.498;2023-03-02T14:31:50;22.20;25.30
29539;DHT22;16482;51.046;4.498;2023-03-02T14:34:17;22.20;25.30
29539;DHT22;16482;51.046;4.498;2023-03-02T14:36:46;22.10;25.30
29539;DHT22;16482;51.046;4.498;2023-03-02T14:39:21;22.20;25.00
29539;DHT22;16482;51.046;4.498;2023-03-02T14:41:48;22.10;25.10
29539;DHT22;16482;51.046;4.498;2023-03-02T14:44:14;22.20;25.20
29539;DHT22;16482;51.046;4.498;2023-03-02T14:46:40;22.10;25.40
29539;DHT22;16482;51.046;4.498;2023-03-02T14:49:07;22.20;25.50
29539;DHT22;16482;51.046;4.498;2023-03-02T14:51:35;22.20;25.40
29539;DHT22;16482;51.046;4.498;2023-03-02T14:54:04;22.20;25.50
29539;DHT22;16482;51.046;4.498;2023-03-02T14:56:32;22.20;25.60
29539;DHT22;16482;51.046;4.498;2023-03-02T14:58:59;22.20;25.60
29539;DHT22;16482;51.046;4.498;2023-03-02T15:01:25;22.20;25.60
29539;DHT22;16482;51.046;4.498;2023-03-02T15:03:59;22.20;25.60
29539;DHT22;16482;51.046;4.498;2023-03-02T15:06:37;22.30;25.60
29539;DHT22;16482;51.046;4.498;2023-03-02T15:09:03;22.20;25.60
29539;DHT22;16482;51.046;4.498;2023-03-02T15:11:29;22.20;25.60
29539;DHT22;16482;51.046;4.498;2023-03-02T15:13:55;22.20;25.60
29539;DHT22;16482;51.046;4.498;2023-03-02T15:16:30;22.20;25.60
29539;DHT22;16482;51.046;4.498;2023-03-02T15:18:58;22.20;25.60
29539;DHT22;16482;51.046;4.498;2023-03-02T15:21:27;22.20;25.60
29539;DHT22;16482;51.046;4.498;2023-03-02T15:23:56;22.20;25.50
29539;DHT22;16482;51.046;4.498;2023-03-02T15:26:29;22.20;25.50
29539;DHT22;16482;51.046;4.498;2023-03-02T15:28:55;22.20;25.50
29539;DHT22;16482;51.046;4.498;2023-03-02T15:31:28;22.20;25.50
29539;DHT22;16482;51.046;4.498;2023-03-02T15:34:02;22.20;25.50
29539;DHT22;16482;51.046;4.498;2023-03-02T15:36:28;22.20;25.50
29539;DHT22;16482;51.046;4.498;2023-03-02T15:38:57;22.20;25.60
29539;DHT22;16482;51.046;4.498;2023-03-02T15:41:30;22.20;25.50
29539;DHT22;16482;51.046;4.498;2023-03-02T15:43:56;22.10;25.40
29539;DHT22;16482;51.046;4.498;2023-03-02T15:46:31;22.20;25.50
29539;DHT22;16482;51.046;4.498;2023-03-02T15:48:58;22.10;25.50
29539;DHT22;16482;51.046;4.498;2023-03-02T15:51:26;22.10;25.40
29539;DHT22;16482;51.046;4.498;2023-03-02T15:54:01;22.20;25.50
29539;DHT22;16482;51.046;4.498;2023-03-02T15:56:34;22.10;25.50
29539;DHT22;16482;51.046;4.498;2023-03-02T15:59:00;22.20;25.60
29539;DHT22;16482;51.046;4.498;2023-03-02T16:01:28;22.10;25.50
29539;DHT22;16482;51.046;4.498;2023-03-02T16:04:03;22.10;25.50
29539;DHT22;16482;51.046;4.498;2023-03-02T16:06:29;22.10;25.60
29539;DHT22;16482;51.046;4.498;2023-03-02T16:09:04;22.10;25.50
29539;DHT22;16482;51.046;4.498;2023-03-02T16:11:30;22.10;25.40
29539;DHT22;16482;51.046;4.498;2023-03-02T16:13:56;22.10;25.40
29539;DHT22;16482;51.046;4.498;2023-03-02T16:16:31;22.10;25.40
29539;DHT22;16482;51.046;4.498;2023-03-02T16:19:00;22.10;25.60
29539;DHT22;16482;51.046;4.498;2023-03-02T16:21:27;22.10;25.40
29539;DHT22;16482;51.046;4.498;2023-03-02T16:24:05;22.10;25.30
29539;DHT22;16482;51.046;4.498;2023-03-02T16:26:32;22.20;25.30
29539;DHT22;16482;51.046;4.498;2023-03-02T16:28:59;22.20;25.20
29539;DHT22;16482;51.046;4.498;2023-03-02T16:31:28;22.20;25.20
29539;DHT22;16482;51.046;4.498;2023-03-02T16:33:59;22.20;25.20
29539;DHT22;16482;51.046;4.498;2023-03-02T16:36:31;22.30;25.20
29539;DHT22;16482;51.046;4.498;2023-03-02T16:38:57;22.20;25.20
29539;DHT22;16482;51.046;4.498;2023-03-02T16:41:33;22.30;25.30
29539;DHT22;16482;51.046;4.498;2023-03-02T16:44:00;22.30;25.30
29539;DHT22;16482;51.046;4.498;2023-03-02T16:46:31;22.30;25.30
29539;DHT22;16482;51.046;4.498;2023-03-02T16:48:59;22.30;25.30